Island Venture — WDG3765 — position and weather

sailwx.info

Track history (hours):
 
Tides and Currents Weather Stations Pressure Air Temp Water Temp Dewpoint Dewpoint Depression Visibility Wind Speed Wind Dir Waves Ship Positions

Island Venture

Owner: Island Tug and Barge, Seattle, WA. More information available from US FCC via Universal Licensing System and Coast Guard Vessel Documentation Center.

Last reported at 2015-Jul-05 16:29 UTC. Time now 2015-Jul-05 17:33 UTC.
Position N 47°33' W 122°20'.

Type: Tug. MMSI: 367529420.

Date/timePositionNaut miles runAvg speedWind from/ knotsBaromVisibWave heightAir tempDewpointWater temp
2015-Jul-05 16:29N 47°33' W 122°20'1 1.0
2015-Jul-05 15:32N 47°34' W 122°21'3 3.5
2015-Jul-05 14:33N 47°37' W 122°24'3 2.7
2015-Jul-05 13:33N 47°34' W 122°21'0 0.0
2015-Jul-05 12:33N 47°34' W 122°21'0 0.0
2015-Jul-05 11:33N 47°34' W 122°21'1 0.6
2015-Jul-05 10:33N 47°34' W 122°21'5 4.8
2015-Jul-05 09:33N 47°38' W 122°25'2 2.2
2015-Jul-05 08:33N 47°40' W 122°24'3 2.5
2015-Jul-05 07:31N 47°39' W 122°20'0 0.3
2015-Jul-05 06:32N 47°38' W 122°20'0 0.0
2015-Jul-05 05:33N 47°39' W 122°20'0 0.0
2015-Jul-05 04:33N 47°39' W 122°20'0 0.0
2015-Jul-05 03:33N 47°39' W 122°20'0 0.2
2015-Jul-05 02:33N 47°38' W 122°20'0 0.0
2015-Jul-05 01:27N 47°38' W 122°20'0 0.0
2015-Jul-04 23:26N 47°38' W 122°20'0 0.0
2015-Jul-04 22:33N 47°38' W 122°20'0 0.0
2015-Jul-04 21:31N 47°38' W 122°20'0 0.0
2015-Jul-04 20:32N 47°38' W 122°20'0 0.0
2015-Jul-04 19:26N 47°38' W 122°20'0 0.0
2015-Jul-04 18:33N 47°38' W 122°20'0 0.1
2015-Jul-04 17:33N 47°38' W 122°20'0 0.0
2015-Jul-04 16:33N 47°38' W 122°20'0 0.0
2015-Jul-04 15:33N 47°38' W 122°20'0 0.0
2015-Jul-04 14:33N 47°38' W 122°20'0 0.0
2015-Jul-04 13:33N 47°38' W 122°20'0 0.0
2015-Jul-04 12:33N 47°38' W 122°20'0 0.0
2015-Jul-04 11:33N 47°38' W 122°20'0 0.0
2015-Jul-04 10:33N 47°38' W 122°20'0 0.0
2015-Jul-04 09:33N 47°38' W 122°20'0 0.0
2015-Jul-04 08:33N 47°38' W 122°20'0 0.0
2015-Jul-04 07:33N 47°38' W 122°20'0 0.0
2015-Jul-04 06:33N 47°38' W 122°20'0 0.0
2015-Jul-04 05:33N 47°38' W 122°20'0 0.0
2015-Jul-04 04:33N 47°38' W 122°20'0 0.0
2015-Jul-04 03:33N 47°38' W 122°20'0 0.0
2015-Jul-04 02:33N 47°38' W 122°20'0 0.0
2015-Jul-04 01:32N 47°38' W 122°20'0 0.0
2015-Jul-04 00:33N 47°38' W 122°20'0 0.0
2015-Jul-03 23:32N 47°38' W 122°20'0 0.0
2015-Jul-03 22:09N 47°38' W 122°20'0 0.0
2015-Jul-03 21:18N 47°38' W 122°20'0 0.0
2015-Jul-03 20:10N 47°38' W 122°20'0 0.0
2015-Jul-03 17:28N 47°38' W 122°20'0 0.0
2015-Jul-03 08:12N 47°39' W 122°20'2 3.3
2015-Jul-03 07:33N 47°40' W 122°23'1 0.9
2015-Jul-03 06:10N 47°40' W 122°25'3 4.9
2015-Jul-03 05:32N 47°37' W 122°25'4 0.5
2015-Jul-02 22:33N 47°34' W 122°21'0 0.0
2015-Jul-02 21:33N 47°34' W 122°21'0 0.0
2015-Jul-02 20:27N 47°34' W 122°21'0 0.0
2015-Jul-02 19:33N 47°34' W 122°21'0 0.0
2015-Jul-02 18:33N 47°34' W 122°21'1 0.8
2015-Jul-02 17:27N 47°35' W 122°22'0 0.5
2015-Jul-02 16:33N 47°35' W 122°22'1 1.4
2015-Jul-02 15:33N 47°34' W 122°21'1 0.6
2015-Jul-02 14:33N 47°34' W 122°22'1 0.6
2015-Jul-02 13:33N 47°34' W 122°21'0 0.4
2015-Jul-02 12:32N 47°34' W 122°21'0 0.0
2015-Jul-02 11:33N 47°34' W 122°21'0 0.4
2015-Jul-02 10:33N 47°33' W 122°21'2 1.6
2015-Jul-02 09:33N 47°35' W 122°22'3 2.8
2015-Jul-02 08:33N 47°35' W 122°26'6 5.7
2015-Jul-02 07:33N 47°30' W 122°30'6 6.3
2015-Jul-02 06:33N 47°24' W 122°32'8 7.9
2015-Jul-02 05:33N 47°16' W 122°33'15 0.8
2015-Jul-01 09:18N 47°10' W 122°54'4 3.7
2015-Jul-01 08:21N 47°11' W 122°49'8 4.3
2015-Jul-01 06:28N 47°09' W 122°38'0 0.0
2015-Jul-01 05:33N 47°09' W 122°38'8 3.8
2015-Jul-01 03:27N 47°16' W 122°34'5 5.9
2015-Jul-01 02:33N 47°21' W 122°33'7 7.1
2015-Jul-01 01:33N 47°28' W 122°31'4 7.1
2015-Jul-01 00:59N 47°32' W 122°28'3 7.2
2015-Jul-01 00:33N 47°35' W 122°26'1 7.7
2015-Jul-01 00:29N 47°35' W 122°25'3 3.7
2015-Jun-30 23:33N 47°33' W 122°21'0 5.4
2015-Jun-30 23:33N 47°33' W 122°21'1 1.1
2015-Jun-30 22:32N 47°34' W 122°21'0 0.0
2015-Jun-30 22:32N 47°34' W 122°21'0 0.0
2015-Jun-30 21:33N 47°34' W 122°21'0 0.0
2015-Jun-30 21:32N 47°34' W 122°21'0 0.0
2015-Jun-30 20:28N 47°34' W 122°21'0 0.0
2015-Jun-30 20:26N 47°34' W 122°21'1 0.7
2015-Jun-30 19:33N 47°34' W 122°21'0 0.1
2015-Jun-30 19:30N 47°34' W 122°21'1 0.7
2015-Jun-30 18:33N 47°34' W 122°21'0 0.8
2015-Jun-30 18:30N 47°34' W 122°22'1 0.8
2015-Jun-30 17:32N 47°34' W 122°21'0 1.6
2015-Jun-30 17:30N 47°34' W 122°21'0 0.5
2015-Jun-30 16:31N 47°33' W 122°21'1 3.9
2015-Jun-30 16:23N 47°34' W 122°21'2 1.9
2015-Jun-30 15:33N 47°35' W 122°22'0 1.2
2015-Jun-30 15:33N 47°35' W 122°22'6 5.7
2015-Jun-30 14:33N 47°40' W 122°26'0 5.9
2015-Jun-30 14:32N 47°40' W 122°26'6 6.1
2015-Jun-30 13:33N 47°46' W 122°24'0 5.7
2015-Jun-30 13:31N 47°46' W 122°24'6 6.2
2015-Jun-30 12:33N 47°52' W 122°22'0 6.9
2015-Jun-30 12:30N 47°52' W 122°22'7 7.2
2015-Jun-30 11:33N 47°58' W 122°16'4 2.2
2015-Jun-30 09:33N 48°01' W 122°11'0 0.0
2015-Jun-30 08:33N 48°01' W 122°11'0 0.0
2015-Jun-30 07:33N 48°01' W 122°11'0 0.0
2015-Jun-30 06:31N 48°01' W 122°11'0 0.0
2015-Jun-30 05:33N 48°01' W 122°11'0 0.0
2015-Jun-30 04:13N 48°01' W 122°11'0 0.0
2015-Jun-30 03:33N 48°01' W 122°11'0 0.0
2015-Jun-30 02:33N 48°01' W 122°11'0 0.0
2015-Jun-30 01:30N 48°01' W 122°11'0 0.0
2015-Jun-30 00:32N 48°01' W 122°11'2 2.5
2015-Jun-29 23:33N 47°59' W 122°14'2 4.9
2015-Jun-29 23:05N 47°58' W 122°17'0 0.5
2015-Jun-29 22:28N 47°58' W 122°17'0 0.1
2015-Jun-29 21:33N 47°58' W 122°17'0 0.5
2015-Jun-29 20:31N 47°58' W 122°18'4 4.3
2015-Jun-29 19:33N 47°54' W 122°21'5 5.5
2015-Jun-29 18:42N 47°50' W 122°24'1 6.1
2015-Jun-29 18:33N 47°49' W 122°25'0 6.4
2015-Jun-29 18:32N 47°49' W 122°25'6 6.0
2015-Jun-29 17:33N 47°43' W 122°26'1 6.1
2015-Jun-29 17:27N 47°43' W 122°26'6 6.3
2015-Jun-29 16:33N 47°37' W 122°27'0 6.8
2015-Jun-29 16:32N 47°37' W 122°27'6 6.1
2015-Jun-29 15:33N 47°31' W 122°29'0 7.6
2015-Jun-29 15:32N 47°31' W 122°29'7 7.3
2015-Jun-29 14:33N 47°24' W 122°32'0 6.5
2015-Jun-29 14:32N 47°24' W 122°32'8 8.1
2015-Jun-29 13:33N 47°16' W 122°33'9 7.2
2015-Jun-29 12:18N 47°08' W 122°39'0 0.1
2015-Jun-29 10:19N 47°08' W 122°39'0 0.0
2015-Jun-29 09:32N 47°08' W 122°39'9 3.8
2015-Jun-29 07:12N 47°16' W 122°33'6 8.8
2015-Jun-29 06:33N 47°22' W 122°32'8 7.8
2015-Jun-29 05:33N 47°29' W 122°30'8 7.8
2015-Jun-29 04:31N 47°36' W 122°23'2 0.7
2015-Jun-29 01:31N 47°34' W 122°21'0 0.0
2015-Jun-29 00:33N 47°34' W 122°21'2 1.6
2015-Jun-28 23:29N 47°33' W 122°20'3 3.0
2015-Jun-28 22:33N 47°35' W 122°22'5 5.4
2015-Jun-28 21:32N 47°40' W 122°26'2 2.0
2015-Jun-28 20:33N 47°40' W 122°23'0 0.2
2015-Jun-28 19:27N 47°40' W 122°23'4 4.3
2015-Jun-28 18:31N 47°39' W 122°17'6 5.9
2015-Jun-28 17:33N 47°44' W 122°16'1 0.6
2015-Jun-28 16:31N 47°45' W 122°16'0 0.0
2015-Jun-28 15:29N 47°45' W 122°16'0 0.0
2015-Jun-28 14:33N 47°45' W 122°16'0 0.0
2015-Jun-28 13:33N 47°45' W 122°16'0 0.0
2015-Jun-28 12:33N 47°45' W 122°16'0 0.0
2015-Jun-28 11:33N 47°45' W 122°16'0 0.0
2015-Jun-28 10:32N 47°45' W 122°16'0 0.0
2015-Jun-28 09:33N 47°45' W 122°16'6 6.1
2015-Jun-28 08:33N 47°39' W 122°16'5 3.3
2015-Jun-28 07:11N 47°40' W 122°23'1 1.5
2015-Jun-28 06:23N 47°40' W 122°24'3 3.3
2015-Jun-28 05:33N 47°37' W 122°25'3 3.9
2015-Jun-28 04:47N 47°35' W 122°22'0 0.2
2015-Jun-28 04:33N 47°35' W 122°22'0 1.0
2015-Jun-28 04:31N 47°35' W 122°22'0 0.5
2015-Jun-28 03:33N 47°35' W 122°22'0 3.5
2015-Jun-28 03:30N 47°35' W 122°22'1 1.4
2015-Jun-28 02:33N 47°34' W 122°21'0 3.5
2015-Jun-28 02:30N 47°34' W 122°21'2 2.1
2015-Jun-28 01:33N 47°32' W 122°20'0 0.0
2015-Jun-28 01:30N 47°32' W 122°20'2 1.6
2015-Jun-28 00:33N 47°34' W 122°21'0 0.8
2015-Jun-28 00:29N 47°34' W 122°21'1 1.0
2015-Jun-27 23:33N 47°35' W 122°22'1 4.8
2015-Jun-27 23:24N 47°34' W 122°21'1 1.0
2015-Jun-27 22:33N 47°33' W 122°20'0 0.0
2015-Jun-27 22:33N 47°33' W 122°20'1 1.4
2015-Jun-27 21:33N 47°34' W 122°21'0 0.0
2015-Jun-27 21:33N 47°34' W 122°21'0 0.0
2015-Jun-27 20:33N 47°34' W 122°21'0 0.0
2015-Jun-27 20:33N 47°34' W 122°21'0 0.0
2015-Jun-27 19:22N 47°34' W 122°21'0 0.0
2015-Jun-27 19:21N 47°34' W 122°21'1 0.3
2015-Jun-27 17:30N 47°34' W 122°21'2 1.0
2015-Jun-27 15:33N 47°36' W 122°22'5 5.3
2015-Jun-27 14:33N 47°32' W 122°28'7 7.2
2015-Jun-27 13:33N 47°25' W 122°32'8 7.7
2015-Jun-27 12:31N 47°17' W 122°32'8 7.8
2015-Jun-27 11:33N 47°12' W 122°39'6 0.3
2015-Jun-26 14:30N 47°16' W 122°33'5 5.7
2015-Jun-26 13:33N 47°21' W 122°33'1 1.5
2015-Jun-26 12:33N 47°23' W 122°32'8 7.7
2015-Jun-26 11:33N 47°15' W 122°34'  
Track history (hours):
 
Tides and Currents Weather Stations Pressure Air Temp Water Temp Dewpoint Dewpoint Depression Visibility Wind Speed Wind Dir Waves Ship Positions

Island Venture

Owner: Island Tug and Barge, Seattle, WA. More information available from US FCC via Universal Licensing System and Coast Guard Vessel Documentation Center.

Last reported at 2015-Jul-05 16:29 UTC. Time now 2015-Jul-05 17:33 UTC.
Position N 47°33' W 122°20'.

Type: Tug. MMSI: 367529420.

Date/timePositionNaut miles runAvg speedWind from/ knotsBaromVisibWave heightAir tempDewpointWater temp
2015-Jul-05 16:29N 47°33' W 122°20'1 1.0
2015-Jul-05 15:32N 47°34' W 122°21'3 3.5
2015-Jul-05 14:33N 47°37' W 122°24'3 2.7
2015-Jul-05 13:33N 47°34' W 122°21'0 0.0
2015-Jul-05 12:33N 47°34' W 122°21'0 0.0
2015-Jul-05 11:33N 47°34' W 122°21'1 0.6
2015-Jul-05 10:33N 47°34' W 122°21'5 4.8
2015-Jul-05 09:33N 47°38' W 122°25'2 2.2
2015-Jul-05 08:33N 47°40' W 122°24'3 2.5
2015-Jul-05 07:31N 47°39' W 122°20'0 0.3
2015-Jul-05 06:32N 47°38' W 122°20'0 0.0
2015-Jul-05 05:33N 47°39' W 122°20'0 0.0
2015-Jul-05 04:33N 47°39' W 122°20'0 0.0
2015-Jul-05 03:33N 47°39' W 122°20'0 0.2
2015-Jul-05 02:33N 47°38' W 122°20'0 0.0
2015-Jul-05 01:27N 47°38' W 122°20'0 0.0
2015-Jul-04 23:26N 47°38' W 122°20'0 0.0
2015-Jul-04 22:33N 47°38' W 122°20'0 0.0
2015-Jul-04 21:31N 47°38' W 122°20'0 0.0
2015-Jul-04 20:32N 47°38' W 122°20'0 0.0
2015-Jul-04 19:26N 47°38' W 122°20'0 0.0
2015-Jul-04 18:33N 47°38' W 122°20'0 0.1
2015-Jul-04 17:33N 47°38' W 122°20'0 0.0
2015-Jul-04 16:33N 47°38' W 122°20'0 0.0
2015-Jul-04 15:33N 47°38' W 122°20'0 0.0
2015-Jul-04 14:33N 47°38' W 122°20'0 0.0
2015-Jul-04 13:33N 47°38' W 122°20'0 0.0
2015-Jul-04 12:33N 47°38' W 122°20'0 0.0
2015-Jul-04 11:33N 47°38' W 122°20'0 0.0
2015-Jul-04 10:33N 47°38' W 122°20'0 0.0
2015-Jul-04 09:33N 47°38' W 122°20'0 0.0
2015-Jul-04 08:33N 47°38' W 122°20'0 0.0
2015-Jul-04 07:33N 47°38' W 122°20'0 0.0
2015-Jul-04 06:33N 47°38' W 122°20'0 0.0
2015-Jul-04 05:33N 47°38' W 122°20'0 0.0
2015-Jul-04 04:33N 47°38' W 122°20'0 0.0
2015-Jul-04 03:33N 47°38' W 122°20'0 0.0
2015-Jul-04 02:33N 47°38' W 122°20'0 0.0
2015-Jul-04 01:32N 47°38' W 122°20'0 0.0
2015-Jul-04 00:33N 47°38' W 122°20'0 0.0
2015-Jul-03 23:32N 47°38' W 122°20'0 0.0
2015-Jul-03 22:09N 47°38' W 122°20'0 0.0
2015-Jul-03 21:18N 47°38' W 122°20'0 0.0
2015-Jul-03 20:10N 47°38' W 122°20'0 0.0
2015-Jul-03 17:28N 47°38' W 122°20'0 0.0
2015-Jul-03 08:12N 47°39' W 122°20'2 3.3
2015-Jul-03 07:33N 47°40' W 122°23'1 0.9
2015-Jul-03 06:10N 47°40' W 122°25'3 4.9
2015-Jul-03 05:32N 47°37' W 122°25'4 0.5
2015-Jul-02 22:33N 47°34' W 122°21'0 0.0
2015-Jul-02 21:33N 47°34' W 122°21'0 0.0
2015-Jul-02 20:27N 47°34' W 122°21'0 0.0
2015-Jul-02 19:33N 47°34' W 122°21'0 0.0
2015-Jul-02 18:33N 47°34' W 122°21'1 0.8
2015-Jul-02 17:27N 47°35' W 122°22'0 0.5
2015-Jul-02 16:33N 47°35' W 122°22'1 1.4
2015-Jul-02 15:33N 47°34' W 122°21'1 0.6
2015-Jul-02 14:33N 47°34' W 122°22'1 0.6
2015-Jul-02 13:33N 47°34' W 122°21'0 0.4
2015-Jul-02 12:32N 47°34' W 122°21'0 0.0
2015-Jul-02 11:33N 47°34' W 122°21'0 0.4
2015-Jul-02 10:33N 47°33' W 122°21'2 1.6
2015-Jul-02 09:33N 47°35' W 122°22'3 2.8
2015-Jul-02 08:33N 47°35' W 122°26'6 5.7
2015-Jul-02 07:33N 47°30' W 122°30'6 6.3
2015-Jul-02 06:33N 47°24' W 122°32'8 7.9
2015-Jul-02 05:33N 47°16' W 122°33'15 0.8
2015-Jul-01 09:18N 47°10' W 122°54'4 3.7
2015-Jul-01 08:21N 47°11' W 122°49'8 4.3
2015-Jul-01 06:28N 47°09' W 122°38'0 0.0
2015-Jul-01 05:33N 47°09' W 122°38'8 3.8
2015-Jul-01 03:27N 47°16' W 122°34'5 5.9
2015-Jul-01 02:33N 47°21' W 122°33'7 7.1
2015-Jul-01 01:33N 47°28' W 122°31'4 7.1
2015-Jul-01 00:59N 47°32' W 122°28'3 7.2
2015-Jul-01 00:33N 47°35' W 122°26'1 7.7
2015-Jul-01 00:29N 47°35' W 122°25'3 3.7
2015-Jun-30 23:33N 47°33' W 122°21'0 5.4
2015-Jun-30 23:33N 47°33' W 122°21'1 1.1
2015-Jun-30 22:32N 47°34' W 122°21'0 0.0
2015-Jun-30 22:32N 47°34' W 122°21'0 0.0
2015-Jun-30 21:33N 47°34' W 122°21'0 0.0
2015-Jun-30 21:32N 47°34' W 122°21'0 0.0
2015-Jun-30 20:28N 47°34' W 122°21'0 0.0
2015-Jun-30 20:26N 47°34' W 122°21'1 0.7
2015-Jun-30 19:33N 47°34' W 122°21'0 0.1
2015-Jun-30 19:30N 47°34' W 122°21'1 0.7
2015-Jun-30 18:33N 47°34' W 122°21'0 0.8
2015-Jun-30 18:30N 47°34' W 122°22'1 0.8
2015-Jun-30 17:32N 47°34' W 122°21'0 1.6
2015-Jun-30 17:30N 47°34' W 122°21'0 0.5
2015-Jun-30 16:31N 47°33' W 122°21'1 3.9
2015-Jun-30 16:23N 47°34' W 122°21'2 1.9
2015-Jun-30 15:33N 47°35' W 122°22'0 1.2
2015-Jun-30 15:33N 47°35' W 122°22'6 5.7
2015-Jun-30 14:33N 47°40' W 122°26'0 5.9
2015-Jun-30 14:32N 47°40' W 122°26'6 6.1
2015-Jun-30 13:33N 47°46' W 122°24'0 5.7
2015-Jun-30 13:31N 47°46' W 122°24'6 6.2
2015-Jun-30 12:33N 47°52' W 122°22'0 6.9
2015-Jun-30 12:30N 47°52' W 122°22'7 7.2
2015-Jun-30 11:33N 47°58' W 122°16'4 2.2
2015-Jun-30 09:33N 48°01' W 122°11'0 0.0
2015-Jun-30 08:33N 48°01' W 122°11'0 0.0
2015-Jun-30 07:33N 48°01' W 122°11'0 0.0
2015-Jun-30 06:31N 48°01' W 122°11'0 0.0
2015-Jun-30 05:33N 48°01' W 122°11'0 0.0
2015-Jun-30 04:13N 48°01' W 122°11'0 0.0
2015-Jun-30 03:33N 48°01' W 122°11'0 0.0
2015-Jun-30 02:33N 48°01' W 122°11'0 0.0
2015-Jun-30 01:30N 48°01' W 122°11'0 0.0
2015-Jun-30 00:32N 48°01' W 122°11'2 2.5
2015-Jun-29 23:33N 47°59' W 122°14'2 4.9
2015-Jun-29 23:05N 47°58' W 122°17'0 0.5
2015-Jun-29 22:28N 47°58' W 122°17'0 0.1
2015-Jun-29 21:33N 47°58' W 122°17'0 0.5
2015-Jun-29 20:31N 47°58' W 122°18'4 4.3
2015-Jun-29 19:33N 47°54' W 122°21'5 5.5
2015-Jun-29 18:42N 47°50' W 122°24'1 6.1
2015-Jun-29 18:33N 47°49' W 122°25'0 6.4
2015-Jun-29 18:32N 47°49' W 122°25'6 6.0
2015-Jun-29 17:33N 47°43' W 122°26'1 6.1
2015-Jun-29 17:27N 47°43' W 122°26'6 6.3
2015-Jun-29 16:33N 47°37' W 122°27'0 6.8
2015-Jun-29 16:32N 47°37' W 122°27'6 6.1
2015-Jun-29 15:33N 47°31' W 122°29'0 7.6
2015-Jun-29 15:32N 47°31' W 122°29'7 7.3
2015-Jun-29 14:33N 47°24' W 122°32'0 6.5
2015-Jun-29 14:32N 47°24' W 122°32'8 8.1
2015-Jun-29 13:33N 47°16' W 122°33'9 7.2
2015-Jun-29 12:18N 47°08' W 122°39'0 0.1
2015-Jun-29 10:19N 47°08' W 122°39'0 0.0
2015-Jun-29 09:32N 47°08' W 122°39'9 3.8
2015-Jun-29 07:12N 47°16' W 122°33'6 8.8
2015-Jun-29 06:33N 47°22' W 122°32'8 7.8
2015-Jun-29 05:33N 47°29' W 122°30'8 7.8
2015-Jun-29 04:31N 47°36' W 122°23'2 0.7
2015-Jun-29 01:31N 47°34' W 122°21'0 0.0
2015-Jun-29 00:33N 47°34' W 122°21'2 1.6
2015-Jun-28 23:29N 47°33' W 122°20'3 3.0
2015-Jun-28 22:33N 47°35' W 122°22'5 5.4
2015-Jun-28 21:32N 47°40' W 122°26'2 2.0
2015-Jun-28 20:33N 47°40' W 122°23'0 0.2
2015-Jun-28 19:27N 47°40' W 122°23'4 4.3
2015-Jun-28 18:31N 47°39' W 122°17'6 5.9
2015-Jun-28 17:33N 47°44' W 122°16'1 0.6
2015-Jun-28 16:31N 47°45' W 122°16'0 0.0
2015-Jun-28 15:29N 47°45' W 122°16'0 0.0
2015-Jun-28 14:33N 47°45' W 122°16'0 0.0
2015-Jun-28 13:33N 47°45' W 122°16'0 0.0
2015-Jun-28 12:33N 47°45' W 122°16'0 0.0
2015-Jun-28 11:33N 47°45' W 122°16'0 0.0
2015-Jun-28 10:32N 47°45' W 122°16'0 0.0
2015-Jun-28 09:33N 47°45' W 122°16'6 6.1
2015-Jun-28 08:33N 47°39' W 122°16'5 3.3
2015-Jun-28 07:11N 47°40' W 122°23'1 1.5
2015-Jun-28 06:23N 47°40' W 122°24'3 3.3
2015-Jun-28 05:33N 47°37' W 122°25'3 3.9
2015-Jun-28 04:47N 47°35' W 122°22'0 0.2
2015-Jun-28 04:33N 47°35' W 122°22'0 1.0
2015-Jun-28 04:31N 47°35' W 122°22'0 0.5
2015-Jun-28 03:33N 47°35' W 122°22'0 3.5
2015-Jun-28 03:30N 47°35' W 122°22'1 1.4
2015-Jun-28 02:33N 47°34' W 122°21'0 3.5
2015-Jun-28 02:30N 47°34' W 122°21'2 2.1
2015-Jun-28 01:33N 47°32' W 122°20'0 0.0
2015-Jun-28 01:30N 47°32' W 122°20'2 1.6
2015-Jun-28 00:33N 47°34' W 122°21'0 0.8
2015-Jun-28 00:29N 47°34' W 122°21'1 1.0
2015-Jun-27 23:33N 47°35' W 122°22'1 4.8
2015-Jun-27 23:24N 47°34' W 122°21'1 1.0
2015-Jun-27 22:33N 47°33' W 122°20'0 0.0
2015-Jun-27 22:33N 47°33' W 122°20'1 1.4
2015-Jun-27 21:33N 47°34' W 122°21'0 0.0
2015-Jun-27 21:33N 47°34' W 122°21'0 0.0
2015-Jun-27 20:33N 47°34' W 122°21'0 0.0
2015-Jun-27 20:33N 47°34' W 122°21'0 0.0
2015-Jun-27 19:22N 47°34' W 122°21'0 0.0
2015-Jun-27 19:21N 47°34' W 122°21'1 0.3
2015-Jun-27 17:30N 47°34' W 122°21'2 1.0
2015-Jun-27 15:33N 47°36' W 122°22'5 5.3
2015-Jun-27 14:33N 47°32' W 122°28'7 7.2
2015-Jun-27 13:33N 47°25' W 122°32'8 7.7
2015-Jun-27 12:31N 47°17' W 122°32'8 7.8
2015-Jun-27 11:33N 47°12' W 122°39'6 0.3
2015-Jun-26 14:30N 47°16' W 122°33'5 5.7
2015-Jun-26 13:33N 47°21' W 122°33'1 1.5
2015-Jun-26 12:33N 47°23' W 122°32'8 7.7
2015-Jun-26 11:33N 47°15' W 122°34'  

Dump ship's entire track history